createdAt,value
2017-02-06T00:03:10.123Z,0
2017-02-06T00:13:21.929Z,0
2017-02-06T00:23:33.737Z,0
2017-02-06T00:33:45.504Z,0
2017-02-06T00:43:57.341Z,0
2017-02-06T00:54:09.162Z,0
2017-02-06T01:04:21.001Z,0
2017-02-06T01:14:32.845Z,0
2017-02-06T01:24:44.729Z,0
2017-02-06T01:34:56.594Z,0
2017-02-06T01:45:08.407Z,0
2017-02-06T01:55:20.225Z,0
2017-02-06T02:05:31.992Z,0
2017-02-06T02:15:43.739Z,0
2017-02-06T02:25:55.478Z,0
2017-02-06T02:36:07.205Z,0
2017-02-06T02:46:18.897Z,0
2017-02-06T02:56:30.645Z,0
2017-02-06T03:06:42.359Z,0
2017-02-06T03:16:54.016Z,0
2017-02-06T03:27:05.668Z,0
2017-02-06T03:37:17.342Z,0
2017-02-06T03:47:29.021Z,0
2017-02-06T03:57:40.732Z,0
2017-02-06T04:07:52.443Z,0
2017-02-06T04:18:04.202Z,0
2017-02-06T04:28:15.910Z,0
2017-02-06T04:38:27.693Z,0
2017-02-06T04:48:39.467Z,0
2017-02-06T04:58:51.217Z,0
2017-02-06T05:09:02.964Z,0
2017-02-06T05:19:14.723Z,0
2017-02-06T05:29:26.510Z,0
2017-02-06T05:39:38.342Z,0
2017-02-06T05:49:50.133Z,0
2017-02-06T06:00:01.964Z,0
2017-02-06T06:10:13.675Z,0
2017-02-06T06:20:25.385Z,0
2017-02-06T06:30:37.082Z,4
2017-02-06T06:40:48.778Z,12
2017-02-06T06:51:00.535Z,52
2017-02-06T07:01:12.253Z,184
2017-02-06T07:11:23.981Z,344
2017-02-06T07:21:35.674Z,600
2017-02-06T07:31:47.412Z,1148
2017-02-06T07:41:59.162Z,1608
2017-02-06T07:52:10.853Z,2564
2017-02-06T08:02:22.525Z,2584
2017-02-06T08:12:34.092Z,3188
2017-02-06T08:22:45.639Z,4132
2017-02-06T08:32:57.121Z,4928
2017-02-06T08:43:08.544Z,6260
2017-02-06T08:53:19.906Z,6456
2017-02-06T09:03:31.203Z,7220
2017-02-06T09:13:42.468Z,7716
2017-02-06T09:23:53.775Z,8064
2017-02-06T09:34:05.014Z,8732
2017-02-06T09:44:16.238Z,9288
2017-02-06T09:54:27.404Z,6944
2017-02-06T10:04:38.625Z,6056
2017-02-06T10:14:49.930Z,7260
2017-02-06T10:25:01.206Z,5220
2017-02-06T10:35:12.454Z,12912
2017-02-06T10:45:23.641Z,14320
2017-02-06T10:55:34.764Z,13668
2017-02-06T11:05:45.766Z,9976
2017-02-06T11:15:56.788Z,7624
2017-02-06T11:26:07.848Z,10416
2017-02-06T11:36:18.886Z,8776
2017-02-06T11:46:29.945Z,8984
2017-02-06T11:56:41.017Z,11360
2017-02-06T12:06:52.007Z,6464
2017-02-06T12:17:03.082Z,6100
2017-02-06T12:27:14.264Z,7856
2017-02-06T12:37:25.462Z,7308
2017-02-06T12:47:36.695Z,8652
2017-02-06T12:57:47.861Z,6968
2017-02-06T13:07:59.055Z,5984
2017-02-06T13:18:10.251Z,5252
2017-02-06T13:28:21.482Z,3652
2017-02-06T13:38:32.693Z,2772
2017-02-06T13:48:43.917Z,3188
2017-02-06T13:58:55.139Z,3100
2017-02-06T14:09:06.384Z,2424
2017-02-06T14:19:17.647Z,4060
2017-02-06T14:29:28.901Z,3188
2017-02-06T14:39:40.212Z,5732
2017-02-06T14:49:51.583Z,4304
2017-02-06T15:00:02.782Z,5008
2017-02-06T15:10:14.094Z,4212
2017-02-06T15:20:25.353Z,3376
2017-02-06T15:30:36.649Z,3512
2017-02-06T15:40:47.982Z,2884
2017-02-06T15:50:59.345Z,2596
2017-02-06T16:01:10.749Z,1340
2017-02-06T16:11:22.144Z,760
2017-02-06T16:21:33.611Z,316
2017-02-06T16:31:45.067Z,104
2017-02-06T16:41:56.538Z,20
2017-02-06T16:52:07.991Z,4
2017-02-06T17:02:19.466Z,0
2017-02-06T17:12:31.006Z,0
2017-02-06T17:22:42.481Z,0
2017-02-06T17:32:53.960Z,0
2017-02-06T17:43:05.478Z,0
2017-02-06T17:53:17.043Z,0
2017-02-06T18:03:28.610Z,0
2017-02-06T18:13:40.180Z,0
2017-02-06T18:23:51.730Z,0
2017-02-06T18:34:03.291Z,0
2017-02-06T18:44:14.913Z,0
2017-02-06T18:54:26.544Z,0
2017-02-06T19:04:38.198Z,0
2017-02-06T19:14:49.872Z,0
2017-02-06T19:25:01.512Z,0
2017-02-06T19:35:13.170Z,0
2017-02-06T19:45:24.814Z,0
2017-02-06T19:55:36.522Z,0
2017-02-06T20:05:48.234Z,0
2017-02-06T20:15:59.916Z,0
2017-02-06T20:26:11.621Z,0
2017-02-06T20:36:23.291Z,0
2017-02-06T20:46:34.967Z,0
2017-02-06T20:56:46.690Z,0
2017-02-06T21:06:58.390Z,0
2017-02-06T21:17:10.092Z,0
2017-02-06T21:27:21.788Z,0
2017-02-06T21:37:33.425Z,0
2017-02-06T21:47:45.118Z,0
2017-02-06T21:57:56.812Z,0
2017-02-06T22:08:08.498Z,0
2017-02-06T22:18:20.224Z,0
2017-02-06T22:28:31.914Z,0
2017-02-06T22:38:43.549Z,0
2017-02-06T22:48:55.264Z,0
2017-02-06T22:59:07.013Z,0
2017-02-06T23:09:18.739Z,0
2017-02-06T23:19:30.486Z,0
2017-02-06T23:29:42.242Z,0
2017-02-06T23:39:53.975Z,0
2017-02-06T23:50:05.726Z,0
